sensor_id;sensor_type;location;lat;lon;timestamp;pressure;altitude;pressure_sealevel;temperature;humidity
53546;BME280;39432;51.902;10.844;2023-02-22T00:01:28;99588.78;;;11.40;100.00
53546;BME280;39432;51.902;10.844;2023-02-22T00:04:13;99586.25;;;10.96;100.00
53546;BME280;39432;51.902;10.844;2023-02-22T00:06:47;99587.31;;;10.63;100.00
53546;BME280;39432;51.902;10.844;2023-02-22T00:09:17;99586.88;;;10.22;100.00
53546;BME280;39432;51.902;10.844;2023-02-22T00:11:50;99590.00;;;10.85;100.00
53546;BME280;39432;51.902;10.844;2023-02-22T00:14:19;99590.72;;;10.48;100.00
53546;BME280;39432;51.902;10.844;2023-02-22T00:16:52;99587.78;;;10.27;100.00
53546;BME280;39432;51.902;10.844;2023-02-22T00:19:25;99584.56;;;9.92;100.00
53546;BME280;39432;51.902;10.844;2023-02-22T00:21:57;99582.16;;;10.66;100.00
53546;BME280;39432;51.902;10.844;2023-02-22T00:24:26;99581.75;;;10.09;100.00
53546;BME280;39432;51.902;10.844;2023-02-22T00:26:59;99585.06;;;10.33;100.00
53546;BME280;39432;51.902;10.844;2023-02-22T00:29:29;99590.31;;;10.34;100.00
53546;BME280;39432;51.902;10.844;2023-02-22T00:32:00;99579.28;;;10.07;100.00
53546;BME280;39432;51.902;10.844;2023-02-22T00:34:29;99570.41;;;9.95;100.00
53546;BME280;39432;51.902;10.844;2023-02-22T00:36:59;99563.91;;;10.45;100.00
53546;BME280;39432;51.902;10.844;2023-02-22T00:39:30;99568.97;;;10.14;100.00
53546;BME280;39432;51.902;10.844;2023-02-22T00:42:02;99557.69;;;10.27;100.00
53546;BME280;39432;51.902;10.844;2023-02-22T00:44:32;99558.88;;;10.15;100.00
53546;BME280;39432;51.902;10.844;2023-02-22T00:47:01;99553.66;;;10.13;100.00
53546;BME280;39432;51.902;10.844;2023-02-22T00:49:31;99556.41;;;10.13;100.00
53546;BME280;39432;51.902;10.844;2023-02-22T00:52:01;99554.81;;;10.17;100.00
53546;BME280;39432;51.902;10.844;2023-02-22T00:54:30;99544.03;;;9.84;100.00
53546;BME280;39432;51.902;10.844;2023-02-22T00:57:03;99552.53;;;9.27;100.00
53546;BME280;39432;51.902;10.844;2023-02-22T00:59:33;99550.13;;;9.30;100.00
53546;BME280;39432;51.902;10.844;2023-02-22T01:02:02;99551.31;;;9.56;100.00
53546;BME280;39432;51.902;10.844;2023-02-22T01:04:32;99550.63;;;9.88;100.00
53546;BME280;39432;51.902;10.844;2023-02-22T01:07:03;99553.88;;;9.07;100.00
53546;BME280;39432;51.902;10.844;2023-02-22T01:09:32;99552.03;;;9.30;100.00
53546;BME280;39432;51.902;10.844;2023-02-22T01:12:05;99553.53;;;8.70;100.00
53546;BME280;39432;51.902;10.844;2023-02-22T01:14:34;99552.63;;;9.54;100.00
53546;BME280;39432;51.902;10.844;2023-02-22T01:17:05;99557.81;;;7.80;100.00
53546;BME280;39432;51.902;10.844;2023-02-22T01:19:35;99558.53;;;7.76;100.00
53546;BME280;39432;51.902;10.844;2023-02-22T01:22:08;99556.56;;;7.48;100.00
53546;BME280;39432;51.902;10.844;2023-02-22T01:24:38;99554.06;;;7.46;100.00
53546;BME280;39432;51.902;10.844;2023-02-22T01:27:10;99554.19;;;8.03;100.00
53546;BME280;39432;51.902;10.844;2023-02-22T01:29:39;99548.78;;;7.80;100.00
53546;BME280;39432;51.902;10.844;2023-02-22T01:32:09;99549.94;;;6.85;100.00
53546;BME280;39432;51.902;10.844;2023-02-22T01:34:40;99554.97;;;6.70;100.00
53546;BME280;39432;51.902;10.844;2023-02-22T01:37:10;99549.59;;;7.17;100.00
53546;BME280;39432;51.902;10.844;2023-02-22T01:39:39;99543.78;;;7.01;100.00
53546;BME280;39432;51.902;10.844;2023-02-22T01:42:11;99551.50;;;7.28;100.00
53546;BME280;39432;51.902;10.844;2023-02-22T01:44:41;99544.13;;;7.52;100.00
53546;BME280;39432;51.902;10.844;2023-02-22T01:47:10;99534.66;;;7.54;100.00
53546;BME280;39432;51.902;10.844;2023-02-22T01:49:42;99535.72;;;7.53;100.00
53546;BME280;39432;51.902;10.844;2023-02-22T01:52:16;99538.22;;;7.08;100.00
53546;BME280;39432;51.902;10.844;2023-02-22T01:54:49;99529.38;;;6.89;100.00
53546;BME280;39432;51.902;10.844;2023-02-22T01:57:27;99536.47;;;6.90;100.00
53546;BME280;39432;51.902;10.844;2023-02-22T02:00:03;99540.81;;;6.68;100.00
53546;BME280;39432;51.902;10.844;2023-02-22T02:02:44;99539.16;;;6.67;100.00
53546;BME280;39432;51.902;10.844;2023-02-22T02:05:19;99537.69;;;6.52;100.00
53546;BME280;39432;51.902;10.844;2023-02-22T02:07:50;99531.19;;;6.42;100.00
53546;BME280;39432;51.902;10.844;2023-02-22T02:10:21;99530.84;;;6.38;100.00
53546;BME280;39432;51.902;10.844;2023-02-22T02:12:53;99534.44;;;6.74;100.00
53546;BME280;39432;51.902;10.844;2023-02-22T02:15:27;99531.13;;;6.72;100.00
53546;BME280;39432;51.902;10.844;2023-02-22T02:21:46;99536.53;;;5.51;100.00
53546;BME280;39432;51.902;10.844;2023-02-22T02:24:38;99536.22;;;5.60;100.00
53546;BME280;39432;51.902;10.844;2023-02-22T02:27:18;99537.44;;;5.45;100.00
53546;BME280;39432;51.902;10.844;2023-02-22T02:30:27;99541.34;;;5.31;100.00
53546;BME280;39432;51.902;10.844;2023-02-22T02:33:11;99541.41;;;5.24;100.00
53546;BME280;39432;51.902;10.844;2023-02-22T02:35:49;99542.78;;;5.52;100.00
53546;BME280;39432;51.902;10.844;2023-02-22T02:38:31;99547.75;;;5.37;100.00
53546;BME280;39432;51.902;10.844;2023-02-22T02:41:07;99544.22;;;5.36;100.00
53546;BME280;39432;51.902;10.844;2023-02-22T02:43:43;99550.09;;;5.70;100.00
53546;BME280;39432;51.902;10.844;2023-02-22T02:46:18;99544.09;;;5.49;100.00
53546;BME280;39432;51.902;10.844;2023-02-22T02:48:54;99548.97;;;5.59;100.00
53546;BME280;39432;51.902;10.844;2023-02-22T02:51:28;99543.22;;;5.49;100.00
53546;BME280;39432;51.902;10.844;2023-02-22T02:54:00;99534.66;;;5.34;100.00
53546;BME280;39432;51.902;10.844;2023-02-22T02:56:30;99538.19;;;5.34;100.00
53546;BME280;39432;51.902;10.844;2023-02-22T02:58:59;99535.19;;;4.99;100.00
53546;BME280;39432;51.902;10.844;2023-02-22T03:01:44;99536.91;;;4.93;100.00
53546;BME280;39432;51.902;10.844;2023-02-22T03:04:40;99548.44;;;4.89;100.00
53546;BME280;39432;51.902;10.844;2023-02-22T03:07:27;99540.03;;;4.97;100.00
53546;BME280;39432;51.902;10.844;2023-02-22T03:10:19;99543.97;;;4.76;100.00
53546;BME280;39432;51.902;10.844;2023-02-22T03:13:00;99546.69;;;4.44;100.00
53546;BME280;39432;51.902;10.844;2023-02-22T03:15:41;99554.00;;;4.94;100.00
53546;BME280;39432;51.902;10.844;2023-02-22T03:18:17;99557.63;;;5.31;100.00
53546;BME280;39432;51.902;10.844;2023-02-22T03:20:57;99542.84;;;4.59;100.00
53546;BME280;39432;51.902;10.844;2023-02-22T03:23:32;99539.91;;;4.60;100.00
53546;BME280;39432;51.902;10.844;2023-02-22T03:26:07;99548.38;;;5.39;100.00
53546;BME280;39432;51.902;10.844;2023-02-22T03:28:40;99538.91;;;5.05;100.00
53546;BME280;39432;51.902;10.844;2023-02-22T03:31:14;99536.47;;;4.78;100.00
53546;BME280;39432;51.902;10.844;2023-02-22T03:33:49;99531.97;;;5.09;100.00
53546;BME280;39432;51.902;10.844;2023-02-22T03:36:24;99533.13;;;4.76;100.00
53546;BME280;39432;51.902;10.844;2023-02-22T03:38:57;99538.03;;;4.61;100.00
53546;BME280;39432;51.902;10.844;2023-02-22T03:41:32;99536.59;;;4.58;100.00
53546;BME280;39432;51.902;10.844;2023-02-22T03:44:07;99536.31;;;4.66;100.00
53546;BME280;39432;51.902;10.844;2023-02-22T03:46:38;99539.75;;;4.80;100.00
53546;BME280;39432;51.902;10.844;2023-02-22T03:49:13;99535.22;;;4.74;100.00
53546;BME280;39432;51.902;10.844;2023-02-22T03:51:48;99537.66;;;4.82;100.00
53546;BME280;39432;51.902;10.844;2023-02-22T03:54:18;99534.16;;;5.00;100.00
53546;BME280;39432;51.902;10.844;2023-02-22T03:56:51;99533.88;;;5.26;100.00
53546;BME280;39432;51.902;10.844;2023-02-22T03:59:23;99528.44;;;4.90;100.00
53546;BME280;39432;51.902;10.844;2023-02-22T04:01:54;99527.69;;;4.76;100.00
53546;BME280;39432;51.902;10.844;2023-02-22T04:04:25;99524.38;;;4.74;100.00
53546;BME280;39432;51.902;10.844;2023-02-22T04:06:57;99527.63;;;5.26;100.00
53546;BME280;39432;51.902;10.844;2023-02-22T04:09:28;99522.59;;;4.86;100.00
53546;BME280;39432;51.902;10.844;2023-02-22T04:11:58;99522.47;;;4.56;100.00
53546;BME280;39432;51.902;10.844;2023-02-22T04:14:30;99514.16;;;4.76;100.00
53546;BME280;39432;51.902;10.844;2023-02-22T04:17:00;99506.78;;;4.33;100.00
53546;BME280;39432;51.902;10.844;2023-02-22T04:19:30;99510.66;;;4.19;100.00
53546;BME280;39432;51.902;10.844;2023-02-22T04:22:02;99515.19;;;4.25;100.00
53546;BME280;39432;51.902;10.844;2023-02-22T04:24:33;99512.41;;;4.00;100.00
53546;BME280;39432;51.902;10.844;2023-02-22T04:27:03;99519.31;;;4.28;100.00
53546;BME280;39432;51.902;10.844;2023-02-22T04:29:38;99516.19;;;4.56;100.00
53546;BME280;39432;51.902;10.844;2023-02-22T04:32:08;99522.44;;;5.06;100.00
53546;BME280;39432;51.902;10.844;2023-02-22T04:34:38;99514.03;;;4.64;100.00
53546;BME280;39432;51.902;10.844;2023-02-22T04:37:11;99508.56;;;4.96;100.00
53546;BME280;39432;51.902;10.844;2023-02-22T04:39:40;99510.28;;;4.65;100.00
53546;BME280;39432;51.902;10.844;2023-02-22T04:42:10;99498.53;;;4.71;100.00
53546;BME280;39432;51.902;10.844;2023-02-22T04:44:40;99494.63;;;4.42;100.00
53546;BME280;39432;51.902;10.844;2023-02-22T04:47:10;99503.78;;;4.73;100.00
53546;BME280;39432;51.902;10.844;2023-02-22T04:49:40;99496.69;;;5.34;100.00
53546;BME280;39432;51.902;10.844;2023-02-22T04:52:13;99491.19;;;5.40;100.00
53546;BME280;39432;51.902;10.844;2023-02-22T04:54:43;99486.94;;;5.08;100.00
53546;BME280;39432;51.902;10.844;2023-02-22T04:57:13;99486.94;;;5.26;100.00
53546;BME280;39432;51.902;10.844;2023-02-22T04:59:43;99487.84;;;5.20;100.00
53546;BME280;39432;51.902;10.844;2023-02-22T05:02:13;99495.47;;;5.29;100.00
53546;BME280;39432;51.902;10.844;2023-02-22T05:04:43;99486.97;;;5.44;100.00
53546;BME280;39432;51.902;10.844;2023-02-22T05:07:15;99482.63;;;6.03;100.00
53546;BME280;39432;51.902;10.844;2023-02-22T05:09:45;99475.50;;;5.61;100.00
53546;BME280;39432;51.902;10.844;2023-02-22T05:12:14;99479.91;;;6.03;100.00
53546;BME280;39432;51.902;10.844;2023-02-22T05:14:44;99466.63;;;6.25;100.00
53546;BME280;39432;51.902;10.844;2023-02-22T05:17:14;99456.59;;;5.66;100.00
53546;BME280;39432;51.902;10.844;2023-02-22T05:19:43;99456.13;;;5.57;100.00
53546;BME280;39432;51.902;10.844;2023-02-22T05:22:16;99461.41;;;5.82;100.00
53546;BME280;39432;51.902;10.844;2023-02-22T05:24:45;99457.38;;;5.73;100.00
53546;BME280;39432;51.902;10.844;2023-02-22T05:27:15;99456.53;;;6.02;100.00
53546;BME280;39432;51.902;10.844;2023-02-22T05:29:45;99456.41;;;5.49;100.00
53546;BME280;39432;51.902;10.844;2023-02-22T05:32:15;99461.63;;;5.14;100.00
53546;BME280;39432;51.902;10.844;2023-02-22T05:34:44;99463.00;;;5.23;100.00
53546;BME280;39432;51.902;10.844;2023-02-22T05:37:16;99455.41;;;4.95;100.00
53546;BME280;39432;51.902;10.844;2023-02-22T05:39:46;99463.56;;;4.88;100.00
53546;BME280;39432;51.902;10.844;2023-02-22T05:42:16;99472.34;;;5.09;100.00
53546;BME280;39432;51.902;10.844;2023-02-22T05:44:47;99474.22;;;5.08;100.00
53546;BME280;39432;51.902;10.844;2023-02-22T05:47:17;99480.34;;;5.22;100.00
53546;BME280;39432;51.902;10.844;2023-02-22T05:49:46;99473.56;;;5.13;100.00
53546;BME280;39432;51.902;10.844;2023-02-22T05:52:19;99473.59;;;4.88;100.00
53546;BME280;39432;51.902;10.844;2023-02-22T05:54:48;99474.22;;;4.90;100.00
53546;BME280;39432;51.902;10.844;2023-02-22T05:57:18;99481.53;;;4.89;100.00
53546;BME280;39432;51.902;10.844;2023-02-22T05:59:48;99481.22;;;4.97;100.00
53546;BME280;39432;51.902;10.844;2023-02-22T06:02:18;99479.41;;;4.66;100.00
53546;BME280;39432;51.902;10.844;2023-02-22T06:04:47;99479.25;;;4.86;100.00
53546;BME280;39432;51.902;10.844;2023-02-22T06:07:19;99482.50;;;4.95;100.00
53546;BME280;39432;51.902;10.844;2023-02-22T06:09:49;99489.28;;;5.04;100.00
53546;BME280;39432;51.902;10.844;2023-02-22T06:12:19;99486.63;;;5.16;100.00
53546;BME280;39432;51.902;10.844;2023-02-22T06:14:48;99496.50;;;5.47;100.00
53546;BME280;39432;51.902;10.844;2023-02-22T06:17:18;99491.63;;;5.19;100.00
53546;BME280;39432;51.902;10.844;2023-02-22T06:19:47;99491.00;;;4.98;100.00
53546;BME280;39432;51.902;10.844;2023-02-22T06:22:20;99477.97;;;4.45;100.00
53546;BME280;39432;51.902;10.844;2023-02-22T06:24:49;99488.00;;;4.63;100.00
53546;BME280;39432;51.902;10.844;2023-02-22T06:27:20;99490.50;;;4.83;100.00
53546;BME280;39432;51.902;10.844;2023-02-22T06:29:50;99490.41;;;4.96;100.00
53546;BME280;39432;51.902;10.844;2023-02-22T06:32:19;99504.13;;;5.57;100.00
53546;BME280;39432;51.902;10.844;2023-02-22T06:34:49;99489.91;;;4.81;100.00
53546;BME280;39432;51.902;10.844;2023-02-22T06:37:21;99494.75;;;4.79;100.00
53546;BME280;39432;51.902;10.844;2023-02-22T06:39:51;99496.28;;;5.48;100.00
53546;BME280;39432;51.902;10.844;2023-02-22T06:42:21;99490.88;;;5.12;100.00
53546;BME280;39432;51.902;10.844;2023-02-22T06:44:50;99494.72;;;5.22;100.00
53546;BME280;39432;51.902;10.844;2023-02-22T06:47:20;99499.59;;;5.32;100.00
53546;BME280;39432;51.902;10.844;2023-02-22T06:49:52;99496.13;;;6.10;100.00
53546;BME280;39432;51.902;10.844;2023-02-22T06:52:25;99491.00;;;5.72;100.00
53546;BME280;39432;51.902;10.844;2023-02-22T06:54:55;99491.38;;;5.57;100.00
53546;BME280;39432;51.902;10.844;2023-02-22T06:57:24;99495.81;;;6.30;100.00
53546;BME280;39432;51.902;10.844;2023-02-22T06:59:54;99487.66;;;5.88;100.00
53546;BME280;39432;51.902;10.844;2023-02-22T07:02:23;99484.50;;;6.33;100.00
53546;BME280;39432;51.902;10.844;2023-02-22T07:04:53;99496.09;;;6.40;100.00
53546;BME280;39432;51.902;10.844;2023-02-22T07:07:25;99497.22;;;6.21;100.00
53546;BME280;39432;51.902;10.844;2023-02-22T07:09:55;99490.53;;;6.47;100.00
53546;BME280;39432;51.902;10.844;2023-02-22T07:12:25;99484.28;;;6.46;100.00
53546;BME280;39432;51.902;10.844;2023-02-22T07:14:54;99487.69;;;6.30;100.00
53546;BME280;39432;51.902;10.844;2023-02-22T07:17:24;99483.03;;;6.19;100.00
53546;BME280;39432;51.902;10.844;2023-02-22T07:19:54;99478.66;;;6.59;100.00
53546;BME280;39432;51.902;10.844;2023-02-22T07:22:26;99479.66;;;6.35;100.00
53546;BME280;39432;51.902;10.844;2023-02-22T07:24:56;99482.19;;;6.48;100.00
53546;BME280;39432;51.902;10.844;2023-02-22T07:27:25;99482.38;;;6.35;100.00
53546;BME280;39432;51.902;10.844;2023-02-22T07:29:55;99481.94;;;6.85;100.00
53546;BME280;39432;51.902;10.844;2023-02-22T07:32:25;99474.97;;;6.89;100.00
53546;BME280;39432;51.902;10.844;2023-02-22T07:34:54;99476.16;;;7.05;100.00
53546;BME280;39432;51.902;10.844;2023-02-22T07:37:26;99468.44;;;7.37;100.00
53546;BME280;39432;51.902;10.844;2023-02-22T07:39:56;99473.59;;;7.50;100.00
53546;BME280;39432;51.902;10.844;2023-02-22T07:42:26;99476.91;;;8.09;100.00
53546;BME280;39432;51.902;10.844;2023-02-22T07:44:55;99462.69;;;8.07;100.00
53546;BME280;39432;51.902;10.844;2023-02-22T07:47:25;99463.31;;;8.09;100.00
53546;BME280;39432;51.902;10.844;2023-02-22T07:49:54;99464.38;;;8.08;100.00
53546;BME280;39432;51.902;10.844;2023-02-22T07:52:27;99460.56;;;8.09;100.00
53546;BME280;39432;51.902;10.844;2023-02-22T07:54:56;99456.19;;;7.80;100.00
53546;BME280;39432;51.902;10.844;2023-02-22T07:57:26;99450.84;;;7.56;100.00
53546;BME280;39432;51.902;10.844;2023-02-22T07:59:55;99461.31;;;7.36;100.00
53546;BME280;39432;51.902;10.844;2023-02-22T08:02:25;99464.38;;;7.39;100.00
53546;BME280;39432;51.902;10.844;2023-02-22T08:04:55;99462.03;;;7.20;100.00
53546;BME280;39432;51.902;10.844;2023-02-22T08:07:27;99463.84;;;7.26;100.00
53546;BME280;39432;51.902;10.844;2023-02-22T08:09:57;99467.16;;;7.16;100.00
53546;BME280;39432;51.902;10.844;2023-02-22T08:12:26;99467.00;;;7.34;100.00
53546;BME280;39432;51.902;10.844;2023-02-22T08:14:56;99469.41;;;7.31;100.00
53546;BME280;39432;51.902;10.844;2023-02-22T08:17:26;99468.78;;;7.29;100.00
53546;BME280;39432;51.902;10.844;2023-02-22T08:19:56;99468.03;;;7.45;100.00
53546;BME280;39432;51.902;10.844;2023-02-22T08:22:28;99466.88;;;7.29;100.00
53546;BME280;39432;51.902;10.844;2023-02-22T08:24:58;99470.97;;;7.55;100.00
53546;BME280;39432;51.902;10.844;2023-02-22T08:27:30;99470.72;;;7.85;100.00
53546;BME280;39432;51.902;10.844;2023-02-22T08:29:59;99462.97;;;7.77;100.00
53546;BME280;39432;51.902;10.844;2023-02-22T08:32:29;99469.47;;;8.05;100.00
53546;BME280;39432;51.902;10.844;2023-02-22T08:34:59;99467.25;;;8.18;100.00
53546;BME280;39432;51.902;10.844;2023-02-22T08:37:31;99459.66;;;8.49;100.00
53546;BME280;39432;51.902;10.844;2023-02-22T08:40:01;99457.44;;;8.46;100.00
53546;BME280;39432;51.902;10.844;2023-02-22T08:42:31;99455.44;;;8.58;100.00
53546;BME280;39432;51.902;10.844;2023-02-22T08:45:00;99455.69;;;8.74;100.00
53546;BME280;39432;51.902;10.844;2023-02-22T08:47:30;99455.00;;;8.66;100.00
53546;BME280;39432;51.902;10.844;2023-02-22T08:50:00;99452.53;;;8.82;100.00
53546;BME280;39432;51.902;10.844;2023-02-22T08:52:32;99443.03;;;9.06;100.00
53546;BME280;39432;51.902;10.844;2023-02-22T08:55:02;99441.41;;;9.05;100.00
53546;BME280;39432;51.902;10.844;2023-02-22T08:57:32;99436.09;;;9.15;100.00
53546;BME280;39432;51.902;10.844;2023-02-22T09:00:03;99431.59;;;9.26;100.00
53546;BME280;39432;51.902;10.844;2023-02-22T09:02:32;99439.97;;;9.19;100.00
53546;BME280;39432;51.902;10.844;2023-02-22T09:05:02;99433.56;;;9.31;100.00
53546;BME280;39432;51.902;10.844;2023-02-22T09:07:36;99428.72;;;9.38;100.00
53546;BME280;39432;51.902;10.844;2023-02-22T09:10:06;99429.09;;;9.68;100.00
53546;BME280;39432;51.902;10.844;2023-02-22T09:12:36;99423.94;;;9.72;100.00
53546;BME280;39432;51.902;10.844;2023-02-22T09:15:06;99423.63;;;9.68;100.00
53546;BME280;39432;51.902;10.844;2023-02-22T09:17:36;99418.75;;;9.97;100.00
53546;BME280;39432;51.902;10.844;2023-02-22T09:20:07;99403.13;;;9.93;100.00
53546;BME280;39432;51.902;10.844;2023-02-22T09:22:43;99409.88;;;10.12;100.00
53546;BME280;39432;51.902;10.844;2023-02-22T09:25:14;99412.13;;;10.20;100.00
53546;BME280;39432;51.902;10.844;2023-02-22T09:27:47;99406.34;;;10.49;100.00
53546;BME280;39432;51.902;10.844;2023-02-22T09:30:21;99400.69;;;10.55;100.00
53546;BME280;39432;51.902;10.844;2023-02-22T09:32:53;99382.75;;;10.75;100.00
53546;BME280;39432;51.902;10.844;2023-02-22T09:35:23;99388.19;;;10.70;100.00
53546;BME280;39432;51.902;10.844;2023-02-22T09:37:58;99382.97;;;10.68;100.00
53546;BME280;39432;51.902;10.844;2023-02-22T09:40:30;99378.72;;;10.93;100.00
53546;BME280;39432;51.902;10.844;2023-02-22T09:46:06;99372.63;;;11.33;100.00
53546;BME280;39432;51.902;10.844;2023-02-22T09:48:49;99367.44;;;10.79;100.00
53546;BME280;39432;51.902;10.844;2023-02-22T09:51:20;99360.22;;;11.15;100.00
53546;BME280;39432;51.902;10.844;2023-02-22T09:53:59;99358.34;;;11.21;100.00
53546;BME280;39432;51.902;10.844;2023-02-22T09:56:30;99367.47;;;11.47;100.00
53546;BME280;39432;51.902;10.844;2023-02-22T09:59:05;99361.97;;;11.47;100.00
53546;BME280;39432;51.902;10.844;2023-02-22T10:01:38;99349.94;;;11.48;100.00
53546;BME280;39432;51.902;10.844;2023-02-22T10:04:14;99344.03;;;12.02;100.00
53546;BME280;39432;51.902;10.844;2023-02-22T10:06:58;99334.72;;;11.88;100.00
53546;BME280;39432;51.902;10.844;2023-02-22T10:09:39;99340.19;;;12.08;100.00
53546;BME280;39432;51.902;10.844;2023-02-22T10:12:14;99340.72;;;11.95;100.00
53546;BME280;39432;51.902;10.844;2023-02-22T10:14:58;99332.75;;;12.54;100.00
53546;BME280;39432;51.902;10.844;2023-02-22T10:17:35;99335.19;;;12.66;100.00
53546;BME280;39432;51.902;10.844;2023-02-22T10:20:21;99322.56;;;12.75;100.00
53546;BME280;39432;51.902;10.844;2023-02-22T10:23:04;99327.88;;;13.26;100.00
53546;BME280;39432;51.902;10.844;2023-02-22T10:25:41;99313.75;;;13.48;100.00
53546;BME280;39432;51.902;10.844;2023-02-22T10:28:17;99304.69;;;13.42;100.00
53546;BME280;39432;51.902;10.844;2023-02-22T10:30:50;99300.41;;;13.70;100.00
53546;BME280;39432;51.902;10.844;2023-02-22T10:33:25;99285.41;;;14.21;100.00
53546;BME280;39432;51.902;10.844;2023-02-22T10:35:56;99288.53;;;14.38;100.00
53546;BME280;39432;51.902;10.844;2023-02-22T10:38:27;99291.47;;;14.52;100.00
53546;BME280;39432;51.902;10.844;2023-02-22T10:41:02;99278.38;;;14.05;100.00
53546;BME280;39432;51.902;10.844;2023-02-22T10:43:43;99283.63;;;14.35;100.00
53546;BME280;39432;51.902;10.844;2023-02-22T10:46:16;99280.63;;;14.03;100.00
53546;BME280;39432;51.902;10.844;2023-02-22T10:48:50;99278.16;;;14.30;100.00
53546;BME280;39432;51.902;10.844;2023-02-22T10:51:21;99275.84;;;14.13;100.00
53546;BME280;39432;51.902;10.844;2023-02-22T10:53:57;99275.19;;;13.92;100.00
53546;BME280;39432;51.902;10.844;2023-02-22T10:56:30;99278.97;;;14.02;100.00
53546;BME280;39432;51.902;10.844;2023-02-22T10:59:02;99273.97;;;14.09;100.00
53546;BME280;39432;51.902;10.844;2023-02-22T11:01:36;99273.00;;;14.53;100.00
53546;BME280;39432;51.902;10.844;2023-02-22T11:04:10;99267.56;;;14.18;100.00
53546;BME280;39432;51.902;10.844;2023-02-22T11:06:43;99264.91;;;14.32;100.00
53546;BME280;39432;51.902;10.844;2023-02-22T11:09:15;99261.25;;;14.42;100.00
53546;BME280;39432;51.902;10.844;2023-02-22T11:12:07;99263.88;;;14.57;100.00
53546;BME280;39432;51.902;10.844;2023-02-22T11:14:37;99260.25;;;14.62;100.00
53546;BME280;39432;51.902;10.844;2023-02-22T11:17:09;99260.19;;;14.38;100.00
53546;BME280;39432;51.902;10.844;2023-02-22T11:19:46;99259.13;;;14.63;100.00
53546;BME280;39432;51.902;10.844;2023-02-22T11:22:21;99259.69;;;14.60;100.00
53546;BME280;39432;51.902;10.844;2023-02-22T11:24:54;99254.97;;;14.89;100.00
53546;BME280;39432;51.902;10.844;2023-02-22T11:27:39;99245.09;;;14.83;100.00
53546;BME280;39432;51.902;10.844;2023-02-22T11:30:18;99244.16;;;14.93;100.00
53546;BME280;39432;51.902;10.844;2023-02-22T11:32:52;99231.59;;;15.43;100.00
53546;BME280;39432;51.902;10.844;2023-02-22T11:35:36;99239.31;;;15.03;100.00
53546;BME280;39432;51.902;10.844;2023-02-22T11:38:13;99231.81;;;15.47;100.00
53546;BME280;39432;51.902;10.844;2023-02-22T11:40:44;99229.00;;;15.52;98.72
53546;BME280;39432;51.902;10.844;2023-02-22T11:43:18;99227.22;;;15.23;99.91
53546;BME280;39432;51.902;10.844;2023-02-22T11:45:58;99223.84;;;15.45;99.39
53546;BME280;39432;51.902;10.844;2023-02-22T11:48:31;99215.38;;;15.23;98.46
53546;BME280;39432;51.902;10.844;2023-02-22T11:51:15;99216.97;;;15.43;98.79
53546;BME280;39432;51.902;10.844;2023-02-22T11:53:56;99222.59;;;14.76;100.00
53546;BME280;39432;51.902;10.844;2023-02-22T11:56:33;99213.06;;;15.30;98.26
53546;BME280;39432;51.902;10.844;2023-02-22T11:59:17;99212.31;;;15.24;98.08
53546;BME280;39432;51.902;10.844;2023-02-22T12:01:55;99206.88;;;15.00;97.72
53546;BME280;39432;51.902;10.844;2023-02-22T12:07:54;99205.97;;;15.24;96.95
53546;BME280;39432;51.902;10.844;2023-02-22T12:10:46;99202.69;;;15.41;96.74
53546;BME280;39432;51.902;10.844;2023-02-22T12:13:30;99197.34;;;15.49;94.93
53546;BME280;39432;51.902;10.844;2023-02-22T12:16:16;99196.66;;;15.90;94.97
53546;BME280;39432;51.902;10.844;2023-02-22T12:19:02;99188.94;;;15.22;92.56
53546;BME280;39432;51.902;10.844;2023-02-22T12:21:39;99185.69;;;15.52;93.63
53546;BME280;39432;51.902;10.844;2023-02-22T12:24:13;99183.25;;;15.32;94.69
53546;BME280;39432;51.902;10.844;2023-02-22T12:26:48;99187.78;;;15.61;94.96
53546;BME280;39432;51.902;10.844;2023-02-22T12:29:25;99186.41;;;15.77;97.07
53546;BME280;39432;51.902;10.844;2023-02-22T12:32:03;99178.81;;;16.01;93.77
53546;BME280;39432;51.902;10.844;2023-02-22T12:34:36;99184.97;;;15.66;91.71
53546;BME280;39432;51.902;10.844;2023-02-22T12:37:15;99182.94;;;15.52;95.82
53546;BME280;39432;51.902;10.844;2023-02-22T12:39:52;99183.94;;;15.75;94.77
53546;BME280;39432;51.902;10.844;2023-02-22T12:42:29;99184.78;;;15.38;94.44
53546;BME280;39432;51.902;10.844;2023-02-22T12:45:05;99182.81;;;16.50;91.54
53546;BME280;39432;51.902;10.844;2023-02-22T12:47:44;99181.69;;;16.51;89.83
53546;BME280;39432;51.902;10.844;2023-02-22T12:50:19;99177.91;;;15.54;92.83
53546;BME280;39432;51.902;10.844;2023-02-22T12:52:52;99180.50;;;15.84;93.77
53546;BME280;39432;51.902;10.844;2023-02-22T12:55:25;99185.06;;;16.21;90.81
53546;BME280;39432;51.902;10.844;2023-02-22T12:58:03;99179.34;;;16.31;89.66
53546;BME280;39432;51.902;10.844;2023-02-22T13:00:40;99171.97;;;15.99;90.03
53546;BME280;39432;51.902;10.844;2023-02-22T13:17:06;99155.69;;;15.97;86.12
53546;BME280;39432;51.902;10.844;2023-02-22T13:19:43;99151.63;;;16.36;86.56
53546;BME280;39432;51.902;10.844;2023-02-22T13:22:18;99154.59;;;16.40;84.90
53546;BME280;39432;51.902;10.844;2023-02-22T13:25:00;99164.13;;;16.33;85.34
53546;BME280;39432;51.902;10.844;2023-02-22T13:27:37;99146.84;;;15.68;92.43
53546;BME280;39432;51.902;10.844;2023-02-22T13:30:17;99153.94;;;14.85;100.00
53546;BME280;39432;51.902;10.844;2023-02-22T13:33:20;99145.94;;;14.40;100.00
53546;BME280;39432;51.902;10.844;2023-02-22T13:36:05;99137.31;;;14.90;100.00
53546;BME280;39432;51.902;10.844;2023-02-22T13:38:54;99139.63;;;14.83;100.00
53546;BME280;39432;51.902;10.844;2023-02-22T13:41:50;99136.72;;;14.74;100.00
53546;BME280;39432;51.902;10.844;2023-02-22T13:47:46;99148.78;;;13.82;100.00